sensor_id;sensor_type;location;lat;lon;timestamp;pressure;altitude;pressure_sealevel;temperature;humidity
62617;BME280;62539;51.190;6.808;2023-04-24T00:02:12;99850.88;;;20.01;53.58
62617;BME280;62539;51.190;6.808;2023-04-24T00:04:38;99859.72;;;20.00;53.48
62617;BME280;62539;51.190;6.808;2023-04-24T00:07:06;99852.75;;;19.99;53.65
62617;BME280;62539;51.190;6.808;2023-04-24T00:09:33;99844.94;;;19.97;53.74
62617;BME280;62539;51.190;6.808;2023-04-24T00:11:58;99849.38;;;19.97;53.47
62617;BME280;62539;51.190;6.808;2023-04-24T00:14:24;99853.00;;;19.94;53.65
62617;BME280;62539;51.190;6.808;2023-04-24T00:16:50;99849.53;;;19.94;53.72
62617;BME280;62539;51.190;6.808;2023-04-24T00:19:16;99854.03;;;19.92;53.54
62617;BME280;62539;51.190;6.808;2023-04-24T00:21:42;99854.97;;;19.91;53.57
62617;BME280;62539;51.190;6.808;2023-04-24T00:24:07;99862.94;;;19.89;53.30
62617;BME280;62539;51.190;6.808;2023-04-24T00:26:36;99855.03;;;19.89;53.73
62617;BME280;62539;51.190;6.808;2023-04-24T00:29:02;99854.22;;;19.87;53.51
62617;BME280;62539;51.190;6.808;2023-04-24T00:31:27;99860.44;;;19.86;53.45
62617;BME280;62539;51.190;6.808;2023-04-24T00:33:53;99859.66;;;19.84;53.48
62617;BME280;62539;51.190;6.808;2023-04-24T00:36:18;99857.97;;;19.83;53.06
62617;BME280;62539;51.190;6.808;2023-04-24T00:38:45;99858.13;;;19.80;53.17
62617;BME280;62539;51.190;6.808;2023-04-24T00:41:11;99866.03;;;19.80;53.80
62617;BME280;62539;51.190;6.808;2023-04-24T00:43:36;99854.66;;;19.79;53.75
62617;BME280;62539;51.190;6.808;2023-04-24T00:46:02;99862.56;;;19.79;54.04
62617;BME280;62539;51.190;6.808;2023-04-24T00:48:28;99865.25;;;19.78;53.96
62617;BME280;62539;51.190;6.808;2023-04-24T00:50:54;99860.88;;;19.78;53.94
62617;BME280;62539;51.190;6.808;2023-04-24T00:53:20;99860.00;;;19.78;53.81
62617;BME280;62539;51.190;6.808;2023-04-24T00:55:46;99862.63;;;19.78;53.90
62617;BME280;62539;51.190;6.808;2023-04-24T00:58:12;99859.16;;;19.77;54.04
62617;BME280;62539;51.190;6.808;2023-04-24T01:00:38;99858.28;;;19.77;54.04
62617;BME280;62539;51.190;6.808;2023-04-24T01:03:04;99864.50;;;19.76;53.93
62617;BME280;62539;51.190;6.808;2023-04-24T01:05:31;99854.84;;;19.76;54.19
62617;BME280;62539;51.190;6.808;2023-04-24T01:07:56;99861.03;;;19.75;53.96
62617;BME280;62539;51.190;6.808;2023-04-24T01:10:24;99863.72;;;19.74;53.93
62617;BME280;62539;51.190;6.808;2023-04-24T01:12:52;99861.09;;;19.74;53.52
62617;BME280;62539;51.190;6.808;2023-04-24T01:15:18;99856.75;;;19.73;53.75
62617;BME280;62539;51.190;6.808;2023-04-24T01:17:43;99859.50;;;19.71;53.89
62617;BME280;62539;51.190;6.808;2023-04-24T01:20:10;99864.75;;;19.71;53.94
62617;BME280;62539;51.190;6.808;2023-04-24T01:22:35;99866.63;;;19.69;53.71
62617;BME280;62539;51.190;6.808;2023-04-24T01:25:02;99859.66;;;19.68;53.47
62617;BME280;62539;51.190;6.808;2023-04-24T01:27:28;99863.22;;;19.67;53.82
62617;BME280;62539;51.190;6.808;2023-04-24T01:29:54;99857.09;;;19.66;53.59
62617;BME280;62539;51.190;6.808;2023-04-24T01:32:20;99860.66;;;19.65;53.73
62617;BME280;62539;51.190;6.808;2023-04-24T01:34:46;99854.63;;;19.63;53.83
62617;BME280;62539;51.190;6.808;2023-04-24T01:37:12;99860.81;;;19.62;54.00
62617;BME280;62539;51.190;6.808;2023-04-24T01:39:37;99861.69;;;19.63;53.96
62617;BME280;62539;51.190;6.808;2023-04-24T01:42:04;99857.44;;;19.60;54.14
62617;BME280;62539;51.190;6.808;2023-04-24T01:44:31;99858.28;;;19.61;54.16
62617;BME280;62539;51.190;6.808;2023-04-24T01:46:56;99859.28;;;19.58;54.19
62617;BME280;62539;51.190;6.808;2023-04-24T01:49:22;99860.22;;;19.57;54.22
62617;BME280;62539;51.190;6.808;2023-04-24T01:51:48;99868.09;;;19.57;54.12
62617;BME280;62539;51.190;6.808;2023-04-24T01:54:14;99870.84;;;19.56;53.77
62617;BME280;62539;51.190;6.808;2023-04-24T01:56:41;99871.78;;;19.54;54.37
62617;BME280;62539;51.190;6.808;2023-04-24T01:59:09;99867.34;;;19.55;54.53
62617;BME280;62539;51.190;6.808;2023-04-24T02:01:36;99865.66;;;19.54;54.67
62617;BME280;62539;51.190;6.808;2023-04-24T02:04:04;99868.38;;;19.52;54.71
62617;BME280;62539;51.190;6.808;2023-04-24T02:06:30;99860.47;;;19.52;54.57
62617;BME280;62539;51.190;6.808;2023-04-24T02:08:58;99862.34;;;19.50;54.44
62617;BME280;62539;51.190;6.808;2023-04-24T02:11:24;99861.47;;;19.50;54.78
62617;BME280;62539;51.190;6.808;2023-04-24T02:13:49;99863.28;;;19.49;54.64
62617;BME280;62539;51.190;6.808;2023-04-24T02:16:16;99858.06;;;19.48;54.39
62617;BME280;62539;51.190;6.808;2023-04-24T02:18:42;99859.00;;;19.47;54.53
62617;BME280;62539;51.190;6.808;2023-04-24T02:21:07;99858.19;;;19.46;54.55
62617;BME280;62539;51.190;6.808;2023-04-24T02:23:33;99855.59;;;19.45;54.72
62617;BME280;62539;51.190;6.808;2023-04-24T02:25:58;99852.97;;;19.45;54.31
62617;BME280;62539;51.190;6.808;2023-04-24T02:28:23;99849.59;;;19.43;54.76
62617;BME280;62539;51.190;6.808;2023-04-24T02:30:50;99858.41;;;19.42;54.71
62617;BME280;62539;51.190;6.808;2023-04-24T02:33:16;99866.28;;;19.42;54.51
62617;BME280;62539;51.190;6.808;2023-04-24T02:35:41;99861.97;;;19.41;54.50
62617;BME280;62539;51.190;6.808;2023-04-24T02:38:07;99865.53;;;19.39;54.73
62617;BME280;62539;51.190;6.808;2023-04-24T02:40:32;99860.25;;;19.39;54.76
62617;BME280;62539;51.190;6.808;2023-04-24T02:42:57;99861.19;;;19.38;54.59
62617;BME280;62539;51.190;6.808;2023-04-24T02:45:23;99867.38;;;19.37;54.60
62617;BME280;62539;51.190;6.808;2023-04-24T02:47:48;99872.66;;;19.37;54.80
62617;BME280;62539;51.190;6.808;2023-04-24T02:50:13;99865.69;;;19.36;54.64
62617;BME280;62539;51.190;6.808;2023-04-24T02:52:39;99877.06;;;19.37;54.68
62617;BME280;62539;51.190;6.808;2023-04-24T02:55:05;99874.50;;;19.35;54.77
62617;BME280;62539;51.190;6.808;2023-04-24T02:57:30;99861.34;;;19.35;54.50
62617;BME280;62539;51.190;6.808;2023-04-24T02:59:56;99870.19;;;19.34;54.18
62617;BME280;62539;51.190;6.808;2023-04-24T03:02:21;99877.22;;;19.34;54.30
62617;BME280;62539;51.190;6.808;2023-04-24T03:04:47;99874.66;;;19.32;54.19
62617;BME280;62539;51.190;6.808;2023-04-24T03:07:15;99884.34;;;19.32;54.47
62617;BME280;62539;51.190;6.808;2023-04-24T03:09:41;99878.22;;;19.31;54.58
62617;BME280;62539;51.190;6.808;2023-04-24T03:12:06;99883.47;;;19.31;54.40
62617;BME280;62539;51.190;6.808;2023-04-24T03:14:32;99883.47;;;19.31;54.56
62617;BME280;62539;51.190;6.808;2023-04-24T03:16:57;99891.47;;;19.30;54.61
62617;BME280;62539;51.190;6.808;2023-04-24T03:19:23;99894.09;;;19.30;54.80
62617;BME280;62539;51.190;6.808;2023-04-24T03:21:48;99886.22;;;19.30;54.50
62617;BME280;62539;51.190;6.808;2023-04-24T03:24:14;99891.47;;;19.30;54.71
62617;BME280;62539;51.190;6.808;2023-04-24T03:26:39;99890.59;;;19.29;54.72
62617;BME280;62539;51.190;6.808;2023-04-24T03:29:05;99891.47;;;19.30;54.81
62617;BME280;62539;51.190;6.808;2023-04-24T03:31:30;99894.16;;;19.28;54.74
62617;BME280;62539;51.190;6.808;2023-04-24T03:33:55;99888.91;;;19.28;54.62
62617;BME280;62539;51.190;6.808;2023-04-24T03:36:21;99893.31;;;19.28;54.61
62617;BME280;62539;51.190;6.808;2023-04-24T03:38:46;99893.22;;;19.29;54.50
62617;BME280;62539;51.190;6.808;2023-04-24T03:41:12;99891.38;;;19.31;54.30
62617;BME280;62539;51.190;6.808;2023-04-24T03:43:37;99898.25;;;19.34;54.04
62617;BME280;62539;51.190;6.808;2023-04-24T03:46:03;99889.34;;;19.36;54.06
62617;BME280;62539;51.190;6.808;2023-04-24T03:48:29;99896.16;;;19.41;53.70
62617;BME280;62539;51.190;6.808;2023-04-24T03:50:55;99890.72;;;19.44;53.84
62617;BME280;62539;51.190;6.808;2023-04-24T03:53:20;99892.38;;;19.46;53.61
62617;BME280;62539;51.190;6.808;2023-04-24T03:55:46;99898.41;;;19.48;53.55
62617;BME280;62539;51.190;6.808;2023-04-24T03:58:11;99886.94;;;19.49;53.19
62617;BME280;62539;51.190;6.808;2023-04-24T04:00:38;99886.84;;;19.51;53.34
62617;BME280;62539;51.190;6.808;2023-04-24T04:03:05;99891.88;;;19.56;53.15
62617;BME280;62539;51.190;6.808;2023-04-24T04:05:31;99886.63;;;19.56;53.35
62617;BME280;62539;51.190;6.808;2023-04-24T04:07:56;99894.53;;;19.56;53.60
62617;BME280;62539;51.190;6.808;2023-04-24T04:10:22;99894.41;;;19.57;53.59
62617;BME280;62539;51.190;6.808;2023-04-24T04:12:47;99897.91;;;19.58;53.24
62617;BME280;62539;51.190;6.808;2023-04-24T04:15:12;99904.78;;;19.60;53.39
62617;BME280;62539;51.190;6.808;2023-04-24T04:17:38;99904.78;;;19.60;53.02
62617;BME280;62539;51.190;6.808;2023-04-24T04:20:04;99907.41;;;19.60;53.49
62617;BME280;62539;51.190;6.808;2023-04-24T04:22:34;99903.84;;;19.61;53.31
62617;BME280;62539;51.190;6.808;2023-04-24T04:24:59;99910.81;;;19.62;53.11
62617;BME280;62539;51.190;6.808;2023-04-24T04:27:25;99908.19;;;19.62;53.16
62617;BME280;62539;51.190;6.808;2023-04-24T04:29:51;99916.84;;;19.64;53.02
62617;BME280;62539;51.190;6.808;2023-04-24T04:32:17;99906.31;;;19.64;52.64
62617;BME280;62539;51.190;6.808;2023-04-24T04:34:43;99911.41;;;19.67;52.84
62617;BME280;62539;51.190;6.808;2023-04-24T04:37:10;99911.41;;;19.67;52.93
62617;BME280;62539;51.190;6.808;2023-04-24T04:39:37;99914.81;;;19.69;52.72
62617;BME280;62539;51.190;6.808;2023-04-24T04:42:03;99917.38;;;19.71;52.36
62617;BME280;62539;51.190;6.808;2023-04-24T04:44:28;99919.91;;;19.73;52.72
62617;BME280;62539;51.190;6.808;2023-04-24T04:46:56;99919.91;;;19.73;52.73
62617;BME280;62539;51.190;6.808;2023-04-24T04:49:22;99914.66;;;19.73;52.80
62617;BME280;62539;51.190;6.808;2023-04-24T04:51:49;99928.59;;;19.75;52.79
62617;BME280;62539;51.190;6.808;2023-04-24T04:54:15;99925.03;;;19.76;53.10
62617;BME280;62539;51.190;6.808;2023-04-24T04:56:41;99922.38;;;19.76;52.89
62617;BME280;62539;51.190;6.808;2023-04-24T04:59:06;99925.03;;;19.76;53.35
62617;BME280;62539;51.190;6.808;2023-04-24T05:01:32;99925.03;;;19.76;52.92
62617;BME280;62539;51.190;6.808;2023-04-24T05:03:57;99924.19;;;19.75;53.14
62617;BME280;62539;51.190;6.808;2023-04-24T05:06:22;99926.72;;;19.77;53.05
62617;BME280;62539;51.190;6.808;2023-04-24T05:08:48;99932.84;;;19.77;53.04
62617;BME280;62539;51.190;6.808;2023-04-24T05:11:13;99932.75;;;19.79;52.85
62617;BME280;62539;51.190;6.808;2023-04-24T05:13:39;99933.53;;;19.81;53.34
62617;BME280;62539;51.190;6.808;2023-04-24T05:16:05;99936.00;;;19.84;53.48
62617;BME280;62539;51.190;6.808;2023-04-24T05:18:31;99931.50;;;19.86;53.11
62617;BME280;62539;51.190;6.808;2023-04-24T05:20:56;99935.75;;;19.89;52.50
62617;BME280;62539;51.190;6.808;2023-04-24T05:23:22;99940.03;;;19.91;52.66
62617;BME280;62539;51.190;6.808;2023-04-24T05:25:47;99940.78;;;19.93;52.50
62617;BME280;62539;51.190;6.808;2023-04-24T05:28:13;99939.03;;;19.94;52.65
62617;BME280;62539;51.190;6.808;2023-04-24T05:30:38;99952.19;;;19.94;52.55
62617;BME280;62539;51.190;6.808;2023-04-24T05:33:03;99942.50;;;19.94;52.63
62617;BME280;62539;51.190;6.808;2023-04-24T05:35:29;99939.88;;;19.94;52.92
62617;BME280;62539;51.190;6.808;2023-04-24T05:37:54;99946.94;;;19.94;52.61
62617;BME280;62539;51.190;6.808;2023-04-24T05:40:20;99938.16;;;19.93;52.48
62617;BME280;62539;51.190;6.808;2023-04-24T05:42:45;99947.94;;;19.91;52.42
62617;BME280;62539;51.190;6.808;2023-04-24T05:45:11;99953.28;;;19.90;52.52
62617;BME280;62539;51.190;6.808;2023-04-24T05:47:41;99948.03;;;19.90;52.59
62617;BME280;62539;51.190;6.808;2023-04-24T05:50:07;99947.16;;;19.89;52.36
62617;BME280;62539;51.190;6.808;2023-04-24T05:52:33;99946.22;;;19.90;52.42
62617;BME280;62539;51.190;6.808;2023-04-24T05:54:58;99955.81;;;19.91;52.65
62617;BME280;62539;51.190;6.808;2023-04-24T05:57:24;99953.03;;;19.94;53.10
62617;BME280;62539;51.190;6.808;2023-04-24T05:59:50;99951.94;;;19.98;53.34
62617;BME280;62539;51.190;6.808;2023-04-24T06:02:15;99952.63;;;20.02;53.69
62617;BME280;62539;51.190;6.808;2023-04-24T06:04:41;99955.94;;;20.06;53.05
62617;BME280;62539;51.190;6.808;2023-04-24T06:07:06;99956.69;;;20.08;53.14
62617;BME280;62539;51.190;6.808;2023-04-24T06:09:32;99949.56;;;20.10;52.79
62617;BME280;62539;51.190;6.808;2023-04-24T06:11:57;99957.47;;;20.10;53.16
62617;BME280;62539;51.190;6.808;2023-04-24T06:14:24;99947.69;;;20.12;53.29
62617;BME280;62539;51.190;6.808;2023-04-24T06:16:50;99951.97;;;20.15;53.24
62617;BME280;62539;51.190;6.808;2023-04-24T06:19:15;99945.66;;;20.17;53.49
62617;BME280;62539;51.190;6.808;2023-04-24T06:21:41;99946.59;;;20.16;53.50
62617;BME280;62539;51.190;6.808;2023-04-24T06:24:06;99952.72;;;20.17;53.54
62617;BME280;62539;51.190;6.808;2023-04-24T06:26:32;99953.66;;;20.16;53.28
62617;BME280;62539;51.190;6.808;2023-04-24T06:28:57;99963.16;;;20.18;53.37
62617;BME280;62539;51.190;6.808;2023-04-24T06:31:24;99964.88;;;20.19;53.27
62617;BME280;62539;51.190;6.808;2023-04-24T06:33:49;99961.31;;;20.20;53.40
62617;BME280;62539;51.190;6.808;2023-04-24T06:36:15;99964.69;;;20.22;53.45
62617;BME280;62539;51.190;6.808;2023-04-24T06:38:41;99958.44;;;20.25;53.04
62617;BME280;62539;51.190;6.808;2023-04-24T06:41:07;99957.41;;;20.27;53.11
62617;BME280;62539;51.190;6.808;2023-04-24T06:43:33;99960.91;;;20.28;53.09
62617;BME280;62539;51.190;6.808;2023-04-24T06:45:59;99958.16;;;20.30;53.24
62617;BME280;62539;51.190;6.808;2023-04-24T06:48:25;99966.00;;;20.31;53.34
62617;BME280;62539;51.190;6.808;2023-04-24T06:50:51;99965.06;;;20.32;53.21
62617;BME280;62539;51.190;6.808;2023-04-24T06:53:17;99966.75;;;20.33;53.13
62617;BME280;62539;51.190;6.808;2023-04-24T06:55:43;99965.06;;;20.32;53.46
62617;BME280;62539;51.190;6.808;2023-04-24T06:58:11;99971.09;;;20.34;53.54
62617;BME280;62539;51.190;6.808;2023-04-24T07:00:36;99978.13;;;20.34;53.43
62617;BME280;62539;51.190;6.808;2023-04-24T07:03:03;99974.66;;;20.33;53.47
62617;BME280;62539;51.190;6.808;2023-04-24T07:05:30;99978.25;;;20.32;53.66
62617;BME280;62539;51.190;6.808;2023-04-24T07:07:56;99980.00;;;20.32;53.75
62617;BME280;62539;51.190;6.808;2023-04-24T07:10:23;99975.59;;;20.32;53.96
62617;BME280;62539;51.190;6.808;2023-04-24T07:12:49;99984.28;;;20.34;54.23
62617;BME280;62539;51.190;6.808;2023-04-24T07:15:14;99981.53;;;20.36;53.54
62617;BME280;62539;51.190;6.808;2023-04-24T07:17:41;99983.22;;;20.37;53.59
62617;BME280;62539;51.190;6.808;2023-04-24T07:20:10;99983.06;;;20.40;53.73
62617;BME280;62539;51.190;6.808;2023-04-24T07:22:37;99986.47;;;20.42;53.92
62617;BME280;62539;51.190;6.808;2023-04-24T07:25:04;99983.78;;;20.44;54.04
62617;BME280;62539;51.190;6.808;2023-04-24T07:27:30;99990.72;;;20.45;53.80
62617;BME280;62539;51.190;6.808;2023-04-24T07:29:55;99985.47;;;20.45;53.41
62617;BME280;62539;51.190;6.808;2023-04-24T07:32:20;99989.03;;;20.44;53.33
62617;BME280;62539;51.190;6.808;2023-04-24T07:34:46;99996.94;;;20.44;53.57
62617;BME280;62539;51.190;6.808;2023-04-24T07:37:11;100007.38;;;20.45;53.38
62617;BME280;62539;51.190;6.808;2023-04-24T07:39:37;100021.47;;;20.44;53.29
62617;BME280;62539;51.190;6.808;2023-04-24T07:42:02;100027.63;;;20.45;53.59
62617;BME280;62539;51.190;6.808;2023-04-24T07:44:28;100034.66;;;20.44;53.54
62617;BME280;62539;51.190;6.808;2023-04-24T07:46:54;100035.53;;;20.45;53.47
62617;BME280;62539;51.190;6.808;2023-04-24T07:49:21;100026.75;;;20.44;53.25
62617;BME280;62539;51.190;6.808;2023-04-24T07:51:46;100031.09;;;20.45;53.35
62617;BME280;62539;51.190;6.808;2023-04-24T07:54:12;100028.44;;;20.45;53.30
62617;BME280;62539;51.190;6.808;2023-04-24T07:56:37;100028.63;;;20.42;52.95
62617;BME280;62539;51.190;6.808;2023-04-24T07:59:07;100026.16;;;20.39;53.32
62617;BME280;62539;51.190;6.808;2023-04-24T08:01:32;100035.91;;;20.37;53.17
62617;BME280;62539;51.190;6.808;2023-04-24T08:03:57;100017.59;;;20.35;53.57
62617;BME280;62539;51.190;6.808;2023-04-24T08:06:23;100019.34;;;20.35;53.91
62617;BME280;62539;51.190;6.808;2023-04-24T08:08:49;100022.16;;;20.32;53.54
62617;BME280;62539;51.190;6.808;2023-04-24T08:11:14;100024.00;;;20.30;53.28
62617;BME280;62539;51.190;6.808;2023-04-24T08:13:40;100035.56;;;20.27;52.99
62617;BME280;62539;51.190;6.808;2023-04-24T08:16:05;100034.81;;;20.25;53.39
62617;BME280;62539;51.190;6.808;2023-04-24T08:18:30;100036.56;;;20.24;53.15
62617;BME280;62539;51.190;6.808;2023-04-24T08:20:56;100041.00;;;20.24;53.13
62617;BME280;62539;51.190;6.808;2023-04-24T08:23:26;100038.38;;;20.24;53.00
62617;BME280;62539;51.190;6.808;2023-04-24T08:25:52;100047.97;;;20.25;53.33
62617;BME280;62539;51.190;6.808;2023-04-24T08:28:17;100047.03;;;20.26;53.47
62617;BME280;62539;51.190;6.808;2023-04-24T08:30:45;100055.63;;;20.30;53.70
62617;BME280;62539;51.190;6.808;2023-04-24T08:33:22;100058.09;;;20.33;53.69
62617;BME280;62539;51.190;6.808;2023-04-24T08:35:48;100069.50;;;20.33;53.90
62617;BME280;62539;51.190;6.808;2023-04-24T08:38:13;100079.09;;;20.34;54.08
62617;BME280;62539;51.190;6.808;2023-04-24T08:40:41;100089.63;;;20.34;54.22
62617;BME280;62539;51.190;6.808;2023-04-24T08:43:06;100102.72;;;20.36;54.39
62617;BME280;62539;51.190;6.808;2023-04-24T08:45:33;100104.41;;;20.37;54.40
62617;BME280;62539;51.190;6.808;2023-04-24T08:47:58;100107.97;;;20.36;54.71
62617;BME280;62539;51.190;6.808;2023-04-24T08:50:25;100108.84;;;20.36;54.72
62617;BME280;62539;51.190;6.808;2023-04-24T08:52:51;100114.13;;;20.36;54.92
62617;BME280;62539;51.190;6.808;2023-04-24T08:55:19;100125.47;;;20.37;54.83
62617;BME280;62539;51.190;6.808;2023-04-24T08:57:50;100130.69;;;20.38;55.08
62617;BME280;62539;51.190;6.808;2023-04-24T09:00:19;100141.13;;;20.40;54.50
62617;BME280;62539;51.190;6.808;2023-04-24T09:02:46;100151.50;;;20.43;54.68
62617;BME280;62539;51.190;6.808;2023-04-24T09:05:16;100176.84;;;20.46;54.84
62617;BME280;62539;51.190;6.808;2023-04-24T09:07:46;100168.84;;;20.47;54.67
62617;BME280;62539;51.190;6.808;2023-04-24T09:10:18;100176.59;;;20.50;54.70
62617;BME280;62539;51.190;6.808;2023-04-24T09:12:43;100180.09;;;20.51;54.77
62617;BME280;62539;51.190;6.808;2023-04-24T09:15:10;100182.63;;;20.52;54.64
62617;BME280;62539;51.190;6.808;2023-04-24T09:17:36;100182.63;;;20.52;55.03
62617;BME280;62539;51.190;6.808;2023-04-24T09:20:03;100192.25;;;20.53;54.67
62617;BME280;62539;51.190;6.808;2023-04-24T09:22:30;100199.22;;;20.54;54.77
62617;BME280;62539;51.190;6.808;2023-04-24T09:25:03;100217.59;;;20.56;54.55
62617;BME280;62539;51.190;6.808;2023-04-24T09:27:31;100224.56;;;20.57;54.73
62617;BME280;62539;51.190;6.808;2023-04-24T09:29:57;100237.75;;;20.57;54.71
62617;BME280;62539;51.190;6.808;2023-04-24T09:32:24;100243.84;;;20.58;54.80
62617;BME280;62539;51.190;6.808;2023-04-24T09:35:05;100235.03;;;20.59;54.48
62617;BME280;62539;51.190;6.808;2023-04-24T09:37:36;100261.22;;;20.62;54.17
62617;BME280;62539;51.190;6.808;2023-04-24T09:40:17;100261.22;;;20.62;54.41
62617;BME280;62539;51.190;6.808;2023-04-24T09:42:45;100265.66;;;20.61;54.65
62617;BME280;62539;51.190;6.808;2023-04-24T09:45:18;100264.72;;;20.62;54.72
62617;BME280;62539;51.190;6.808;2023-04-24T09:47:45;100262.94;;;20.63;54.72
62617;BME280;62539;51.190;6.808;2023-04-24T09:50:15;100276.88;;;20.65;54.80
62617;BME280;62539;51.190;6.808;2023-04-24T09:52:46;100282.16;;;20.65;54.68
62617;BME280;62539;51.190;6.808;2023-04-24T09:55:21;100283.00;;;20.65;54.63
62617;BME280;62539;51.190;6.808;2023-04-24T09:57:55;100289.13;;;20.66;54.48
62617;BME280;62539;51.190;6.808;2023-04-24T10:00:27;100292.47;;;20.69;54.95
62617;BME280;62539;51.190;6.808;2023-04-24T10:03:00;100302.91;;;20.71;54.73
62617;BME280;62539;51.190;6.808;2023-04-24T10:05:31;100300.22;;;20.73;54.86
62617;BME280;62539;51.190;6.808;2023-04-24T10:08:01;100304.41;;;20.77;54.62
62617;BME280;62539;51.190;6.808;2023-04-24T10:10:28;100309.59;;;20.78;54.60
62617;BME280;62539;51.190;6.808;2023-04-24T10:12:54;100313.03;;;20.80;54.69
62617;BME280;62539;51.190;6.808;2023-04-24T10:15:21;100309.44;;;20.81;54.37
62617;BME280;62539;51.190;6.808;2023-04-24T10:17:50;100326.13;;;20.82;54.50
62617;BME280;62539;51.190;6.808;2023-04-24T10:20:24;100318.13;;;20.83;54.21
62617;BME280;62539;51.190;6.808;2023-04-24T10:22:54;100328.69;;;20.83;54.70
62617;BME280;62539;51.190;6.808;2023-04-24T10:25:21;100333.03;;;20.84;54.06
62617;BME280;62539;51.190;6.808;2023-04-24T10:27:49;100330.22;;;20.88;54.45
62617;BME280;62539;51.190;6.808;2023-04-24T10:30:17;100334.50;;;20.90;54.34
62617;BME280;62539;51.190;6.808;2023-04-24T10:32:44;100335.19;;;20.94;54.36
62617;BME280;62539;51.190;6.808;2023-04-24T10:35:13;100335.19;;;20.94;54.16
62617;BME280;62539;51.190;6.808;2023-04-24T10:37:44;100347.59;;;20.92;54.20
62617;BME280;62539;51.190;6.808;2023-04-24T10:40:17;100348.47;;;20.92;54.06
62617;BME280;62539;51.190;6.808;2023-04-24T10:42:47;100354.56;;;20.93;53.89
62617;BME280;62539;51.190;6.808;2023-04-24T10:45:18;100351.00;;;20.94;54.11
62617;BME280;62539;51.190;6.808;2023-04-24T10:48:08;100357.97;;;20.95;54.45
62617;BME280;62539;51.190;6.808;2023-04-24T10:50:46;100370.09;;;20.99;53.70
62617;BME280;62539;51.190;6.808;2023-04-24T10:53:16;100374.28;;;21.03;53.88
62617;BME280;62539;51.190;6.808;2023-04-24T10:55:45;100376.75;;;21.06;53.70
62617;BME280;62539;51.190;6.808;2023-04-24T10:58:12;100376.53;;;21.11;53.90
62617;BME280;62539;51.190;6.808;2023-04-24T11:00:39;100390.31;;;21.16;53.78
62617;BME280;62539;51.190;6.808;2023-04-24T11:03:07;100390.22;;;21.18;53.78
62617;BME280;62539;51.190;6.808;2023-04-24T11:05:53;100391.94;;;21.19;53.93
62617;BME280;62539;51.190;6.808;2023-04-24T11:08:26;100395.50;;;21.18;54.15
62617;BME280;62539;51.190;6.808;2023-04-24T11:11:12;100395.66;;;21.14;54.31
62617;BME280;62539;51.190;6.808;2023-04-24T11:16:31;100400.94;;;21.14;54.38
62617;BME280;62539;51.190;6.808;2023-04-24T11:19:28;100402.66;;;21.15;54.60
62617;BME280;62539;51.190;6.808;2023-04-24T11:32:18;100417.84;;;21.28;54.03
62617;BME280;62539;51.190;6.808;2023-04-24T11:34:50;100425.59;;;21.31;54.03
62617;BME280;62539;51.190;6.808;2023-04-24T11:37:17;100431.66;;;21.33;53.74
62617;BME280;62539;51.190;6.808;2023-04-24T11:39:43;100431.50;;;21.36;53.68
62617;BME280;62539;51.190;6.808;2023-04-24T11:42:09;100443.75;;;21.37;51.88
62617;BME280;62539;51.190;6.808;2023-04-24T11:44:35;100433.06;;;21.05;48.53
62617;BME280;62539;51.190;6.808;2023-04-24T11:47:05;100444.84;;;20.61;48.04
62617;BME280;62539;51.190;6.808;2023-04-24T11:49:32;100444.19;;;20.19;48.36
62617;BME280;62539;51.190;6.808;2023-04-24T11:51:59;100438.72;;;19.84;48.48
62617;BME280;62539;51.190;6.808;2023-04-24T11:54:26;100434.97;;;19.50;47.98
62617;BME280;62539;51.190;6.808;2023-04-24T11:56:51;100429.97;;;19.23;47.49
62617;BME280;62539;51.190;6.808;2023-04-24T11:59:17;100442.31;;;19.00;47.93
62617;BME280;62539;51.190;6.808;2023-04-24T12:01:44;100442.53;;;18.94;50.54
62617;BME280;62539;51.190;6.808;2023-04-24T12:04:10;100449.78;;;19.11;51.72
62617;BME280;62539;51.190;6.808;2023-04-24T12:06:36;100452.19;;;19.36;52.09
62617;BME280;62539;51.190;6.808;2023-04-24T12:09:02;100453.75;;;19.61;52.38
62617;BME280;62539;51.190;6.808;2023-04-24T12:11:27;100460.97;;;19.97;52.59
62617;BME280;62539;51.190;6.808;2023-04-24T12:13:53;100459.97;;;20.19;52.64
62617;BME280;62539;51.190;6.808;2023-04-24T12:16:20;100463.69;;;20.34;52.84
62617;BME280;62539;51.190;6.808;2023-04-24T12:18:45;100467.38;;;20.49;53.10
62617;BME280;62539;51.190;6.808;2023-04-24T12:21:29;100469.22;;;20.66;53.44
62617;BME280;62539;51.190;6.808;2023-04-24T12:23:56;100475.69;;;20.78;53.07
62617;BME280;62539;51.190;6.808;2023-04-24T12:26:23;100472.59;;;20.88;53.28
62617;BME280;62539;51.190;6.808;2023-04-24T12:28:49;100478.44;;;20.94;53.19
62617;BME280;62539;51.190;6.808;2023-04-24T12:31:16;100473.69;;;21.01;53.23
62617;BME280;62539;51.190;6.808;2023-04-24T12:33:42;100476.97;;;21.06;53.63
62617;BME280;62539;51.190;6.808;2023-04-24T12:36:11;100485.34;;;21.14;53.51
62617;BME280;62539;51.190;6.808;2023-04-24T12:38:37;100496.44;;;21.21;53.58
62617;BME280;62539;51.190;6.808;2023-04-24T12:41:08;100498.69;;;21.29;53.48
62617;BME280;62539;51.190;6.808;2023-04-24T12:43:35;100501.25;;;21.30;53.41
62617;BME280;62539;51.190;6.808;2023-04-24T12:46:01;100504.50;;;21.36;53.24
62617;BME280;62539;51.190;6.808;2023-04-24T12:48:28;100501.78;;;21.55;53.21
62617;BME280;62539;51.190;6.808;2023-04-24T12:50:56;100509.09;;;21.67;52.70
62617;BME280;62539;51.190;6.808;2023-04-24T12:53:22;100489.41;;;21.91;52.45
62617;BME280;62539;51.190;6.808;2023-04-24T12:55:48;100498.16;;;22.09;52.03
62617;BME280;62539;51.190;6.808;2023-04-24T12:58:19;100507.19;;;22.21;51.77
62617;BME280;62539;51.190;6.808;2023-04-24T13:00:45;100505.13;;;22.10;51.77
62617;BME280;62539;51.190;6.808;2023-04-24T13:03:12;100509.72;;;22.06;52.45
62617;BME280;62539;51.190;6.808;2023-04-24T13:05:38;100514.47;;;21.99;52.18
62617;BME280;62539;51.190;6.808;2023-04-24T13:08:03;100517.19;;;21.98;52.12